Tiempo atmosférico en la estación meteorológica de Puerto Alto del León, Madrid (1532 m.)



Fecha
DESCASC
Temp. máxima en grados centígrados (hora)
DESCASC
Temp. mínima en grados centígrados (hora)
DESCASC
Temp. media en grados centígrados
DESCASC
Racha de viento máxima en m/sg (hora)
DESCASC
Velocidad máxima media en intervalos de 10 minutos(hora)
DESCASC
Precipitaciones diarias en mm
DESCASC
Precipitaciones de 00:00 a 06:00 en mm
DESCASC
Precipitaciones de 06:00 a 12:00 en mm
DESCASC
Precipitaciones de 12:00 a 18:00 en mm
DESCASC
Precipitaciones de 18:00 a 24:00 en mm
DESCASC
18-08-2019 27.8 (13:30) 14.2 (06:20) 21 12.22 (15:30) 7.78 (15:30) 0 0 0 0 0
17-08-2019 30.9 (17:30) 15.2 (05:40) 23 10 (03:20) 7.5 (03:20) 0 0 0 0 0
16-08-2019 30 (18:00) 17 (04:50) 23.5 10.56 (20:40) 6.67 (20:40) 0 0 0 0 0
15-08-2019 27.6 (18:30) 13.1 (00:00) 20.4 10.28 (19:10) 6.11 (07:00) 0 0 0 0 0
14-08-2019 26.4 (17:50) 12.6 (00:00) 19.5 10.83 (17:20) 5.56 (16:20) 0 0 0 0 0
13-08-2019 22.5 (15:50) 9 (00:00) 15.8 11.11 (16:10) 6.94 (20:40) 0 0 0 0 0
12-08-2019 -- (--) -- (--) -- -- (--) -- (--) -- 0 -- -- 0
11-08-2019 20.4 (13:40) 9.9 (00:00) 15.1 14.44 (05:30) 10 (05:10) 0 0 0 0 0
10-08-2019 24.7 (16:20) 8.6 (00:00) 16.7 14.44 (23:50) 7.22 (01:00) 0 0 0 0 0
09-08-2019 26 (15:20) 13 (00:00) 19.5 12.78 (18:20) 8.33 (18:20) 0 0 0 0 0
08-08-2019 27.8 (16:30) 12.8 (00:00) 20.3 12.5 (21:20) 7.5 (21:20) 0 0 0 0 0
07-08-2019 19.3 (00:00) 13.5 (00:00) 16.4 17.78 (20:30) 8.06 (00:30) 2 0 0 2 0
06-08-2019 28.7 (17:40) 15 (00:00) 21.9 12.5 (16:30) 7.78 (23:50) 0 0 0 0 0
05-08-2019 29.7 (18:00) 16.2 (00:00) 23 10.28 (12:30) 6.11 (00:20) 0 0 0 0 0
04-08-2019 30 (17:20) 14.9 (00:00) 22.4 10 (18:30) 6.67 (02:20) 0 0 0 0 0
03-08-2019 29.5 (17:50) 17.5 (00:00) 23.5 10 (13:50) 4.72 (13:20) 0 0 0 0 0
02-08-2019 28.5 (18:40) 14.4 (00:00) 21.4 8.89 (13:30) 4.44 (23:40) 0 0 0 0 0
01-08-2019 26.7 (18:40) 13.6 (00:00) 20.2 11.11 (20:30) 6.39 (05:00) 0 0 0 0 0
31-07-2019 26.4 (17:20) 11.9 (00:00) 19.1 11.39 (15:50) 7.22 (09:00) 0 0 0 0 0
30-07-2019 22.8 (18:00) 5.5 (00:00) 14.1 15 (04:50) 11.11 (05:10) 0 0 0 0 0
29-07-2019 24.8 (15:30) 10.9 (00:00) 17.8 14.17 (18:10) 8.89 (23:30) 0 0 0 0 0
28-07-2019 23.5 (19:00) 6.9 (00:00) 15.2 11.67 (01:00) 7.78 (00:50) 0 0 0 0 0
27-07-2019 18.6 (18:00) 8.4 (00:00) 13.5 16.67 (15:50) 11.39 (06:00) 0.3 0 0 0.3 0
26-07-2019 22.5 (16:30) 13.4 (00:00) 17.9 15 (21:00) 10.28 (23:59) 0 0 0 0 0
25-07-2019 29 (17:50) 17.4 (00:00) 23.2 11.94 (15:20) 6.67 (23:59) 0 0 0 0 0
24-07-2019 29 (18:10) 17.5 (00:00) 23.3 10.83 (15:10) 5.28 (15:20) 0 0 0 0 0
23-07-2019 29.3 (16:40) 14.3 (00:00) 21.8 16.94 (20:10) 8.61 (20:20) 1.9 0 1.4 0 0.5
22-07-2019 29.6 (17:40) 18 (00:00) 23.8 11.67 (14:20) 7.22 (13:20) 0 0 0 0 0
21-07-2019 30.2 (16:30) 17.4 (00:00) 23.8 8.89 (16:00) 6.39 (01:30) 0 0 0 0 0

Gráficas

Temp. máximas Temp. mínimas Temp. medias Precipitaciones Rachas de viento máximas Velocidades máximas media en intervalos de 10 minutos

Datos horarios

Fecha y hora oficial Temperatura (ºC) Velocidad del viento (km/h) Dirección del viento Racha (km/h) Dirección de racha Precipitación (mm) Presión (hPa) Tendencia (hPa) Humedad (%)
2019-08-19 23:00:00 15.9 13 Oeste 50 Oeste 0 850.1 0.5 49
2019-08-19 22:00:00 16.7 20 Noroeste 29 Noroeste 0 850.3 0.4 48
2019-08-19 21:00:00 17.1 14 Oeste 21 Noroeste 0 849.8 -0.1 47
2019-08-19 20:00:00 17.5 11 Oeste 30 Oeste 0 849.6 0.1 47
2019-08-19 19:00:00 18 21 Oeste 35 Noroeste 0 849.9 0.1 45
2019-08-19 18:00:00 18.9 24 Noroeste 36 Noroeste 0 849.9 0.1 43
2019-08-19 17:00:00 22.3 15 Noroeste 27 Oeste 0 849.5 -0.4 35
2019-08-19 16:00:00 21.5 12 Oeste 26 Oeste 0 849.8 0 33
2019-08-19 15:00:00 23.2 10 Sur 25 Sur 0 849.8 -0.1 27
2019-08-19 14:00:00 21.8 4 Noroeste 36 Sudeste 0 849.9 0.3 35
2019-08-19 13:00:00 21.3 17 Este 30 Este 0 849.8 0.2 39
2019-08-19 12:00:00 19.6 13 Este 30 Este 0 849.9 0.4 45
2019-08-19 11:00:00 19.5 17 Sudeste 31 Sudeste 0 849.6 0 49
2019-08-19 10:00:00 18.6 12 Este 32 Este 0 849.6 0.2 53
2019-08-19 09:00:00 16.6 12 Este 19 Este 0 849.5 0.2 58
2019-08-19 08:00:00 15.3 8 Sudeste 11 Sudeste 0 849.6 0.1 61
2019-08-19 07:00:00 15.2 8 Sudeste 12 Sudeste 0 849.4 -0.3 61
2019-08-19 06:00:00 14.9 3 Este 10 Noroeste 0 849.3 -0.5 61
2019-08-19 05:00:00 14.6 8 Oeste 18 Noroeste 0 849.5 -0.4 61
2019-08-19 04:00:00 14.5 16 Noroeste 33 Oeste 0 849.7 -0.5 61
2019-08-19 03:00:00 15.1 23 Noroeste 37 Noroeste 0 849.8 -0.2 61
2019-08-19 02:00:00 16.2 24 Noroeste 34 Oeste 0 849.9 0.1 61
2019-08-19 01:00:00 16.3 25 Noroeste 36 Oeste 0 850.2 1 60
2019-08-19 00:00:00 17.5 24 Oeste 35 Oeste 0 850 1.1 56
2019-08-18 23:00:00 17.9 23 Oeste 35 Noroeste 0 849.8 1 51
2019-08-18 22:00:00 18.9 21 Noroeste 35 Noroeste 0 849.2 0.2 34
2019-08-18 21:00:00 20.8 22 Noroeste 42 Noroeste 0 848.9 0.1 29
2019-08-18 20:00:00 21.9 27 Noroeste 41 Noroeste 0 848.8 -0.3 26
2019-08-18 19:00:00 24 20 Noroeste 41 Noroeste 0 849 -0.2 23
2019-08-18 18:00:00 26 24 Noroeste 40 Noroeste 0 848.8 -0.3 21
2019-08-18 17:00:00 25.2 18 Noroeste 34 Noroeste 0 849.1 0.2 23
2019-08-18 16:00:00 24.8 16 Noroeste 44 Noroeste 0 849.2 -0.1 24
2019-08-18 15:00:00 25.6 17 Noroeste 40 Noroeste 0 849.1 -0.4 23
2019-08-18 14:00:00 25.7 15 Noroeste 29 Oeste 0 848.9 -0.4 20
2019-08-18 13:00:00 25.9 9 Nordeste 23 Nordeste 0 849.3 0.2 19
2019-08-18 12:00:00 23.9 9 Este 19 Sudeste 0 849.5 0.6 23
2019-08-18 11:00:00 22.3 5 Este 14 Noroeste 0 849.3 0.6 27
2019-08-18 10:00:00 17.6 10 Noroeste 22 Noroeste 0 849.1 0.9 39
2019-08-18 09:00:00 16.2 15 Noroeste 22 Noroeste 0 848.9 0.3 40
2019-08-18 08:00:00 19.3 9 Sudoeste 20 Oeste 0 848.7 -0.2 26
2019-08-18 07:00:00 15.4 7 Noroeste 17 Noroeste 0 848.2 -1.1 41
2019-08-18 06:00:00 14.6 15 Noroeste 27 Noroeste 0 848.6 -0.6 38
2019-08-18 05:00:00 15.5 20 Oeste 29 Noroeste 0 848.9 -0.9 29
2019-08-18 04:00:00 16.9 22 Noroeste 30 Noroeste 0 849.3 -0.8 26
2019-08-18 03:00:00 19 18 Noroeste 23 Noroeste 0 849.2 -1.1 23
2019-08-18 02:00:00 18.9 16 Noroeste 21 Noroeste 0 849.8 -0.3 22
2019-08-18 01:00:00 19.6 17 Noroeste 24 Oeste 0 850.1 0.1 20
2019-08-18 00:00:00 20.7 19 Noroeste 27 Oeste 0 850.3 0.6 20
2019-08-17 23:00:00 20.9 20 Noroeste 28 Oeste 0 850.1 0.4 19
2019-08-17 22:00:00 22.6 17 Noroeste 21 Noroeste 0 850 0.1 18
2019-08-17 21:00:00 25.8 13 Oeste 26 Oeste 0 849.7 -0.5 12
2019-08-17 20:00:00 27.8 15 Sudoeste 30 Sudoeste 0 849.7 -0.8 12
2019-08-17 19:00:00 29.4 12 Sudoeste 33 Sudoeste 0 849.9 -0.7 12
2019-08-17 18:00:00 29.5 12 Oeste 28 Oeste 0 850.2 -1.1 12
2019-08-17 17:00:00 28.8 12 Oeste 31 Oeste 0 850.5 -0.9 12
2019-08-17 16:00:00 28.5 6 Sudoeste 30 Sur 0 850.6 -1.4 12
2019-08-17 15:00:00 29.1 8 Sudoeste 33 Sudoeste 0 851.3 -0.8 15
2019-08-17 14:00:00 27.8 13 Oeste 27 Oeste 0 851.4 -0.9 16
2019-08-17 13:00:00 26.6 8 Oeste 26 Este 0 852 -0.1 17
2019-08-17 12:00:00 25.1 12 Sudeste 26 Este 0 852.1 0.1 22
2019-08-17 11:00:00 24.7 11 Este 23 Sudeste 0 852.3 0.5 24
2019-08-17 10:00:00 22.9 11 Este 18 Este 0 852.1 0.5 25
2019-08-17 09:00:00 22.2 10 Sudeste 17 Sudeste 0 852 0.2 27
2019-08-17 08:00:00 18.8 9 Este 10 Este 0 851.8 -0.1 30
2019-08-17 07:00:00 18.8 8 Sudeste 12 Oeste 0 851.6 -0.4 30
2019-08-17 06:00:00 15.5 12 Noroeste 28 Oeste 0 851.8 -0.3 37
2019-08-17 05:00:00 16.4 22 Oeste 33 Oeste 0 851.9 -0.5 33
2019-08-17 04:00:00 17.7 25 Oeste 36 Noroeste 0 852 -0.5 26
2019-08-17 03:00:00 18.3 25 Noroeste 31 Noroeste 0 852.1 -0.2 25
2019-08-17 02:00:00 19.5 22 Noroeste 28 Noroeste 0 852.4 0 24
2019-08-17 01:00:00 19.8 21 Noroeste 28 Oeste 0 852.5 0.5 25
2019-08-17 00:00:00 19.9 20 Noroeste 28 Oeste 0 852.3 0.6 26
2019-08-16 23:00:00 21.1 19 Oeste 25 Oeste 0 852.4 1 25
2019-08-16 22:00:00 21.7 17 Noroeste 33 Noroeste 0 852 0.5 24
2019-08-16 21:00:00 24.3 22 Noroeste 38 Noroeste 0 851.7 0.1 22
2019-08-16 20:00:00 26.6 23 Noroeste 36 Noroeste 0 851.4 -0.6 22
2019-08-16 19:00:00 27.8 12 Noroeste 28 Noroeste 0 851.5 -0.7 21
2019-08-16 18:00:00 28.3 8 Oeste 23 Norte 0 851.6 -1 21
2019-08-16 17:00:00 27.4 8 Sudeste 23 Este 0 852 -0.9 22
2019-08-16 16:00:00 26.4 8 Este 29 Sudeste 0 852.2 -0.9 25
2019-08-16 15:00:00 26.4 16 Este 32 Este 0 852.6 -0.7 25
2019-08-16 14:00:00 26.6 11 Sudeste 29 Este 0 852.9 -0.2 26
2019-08-16 13:00:00 24 11 Este 24 Este 0 853.1 0.1 28
2019-08-16 12:00:00 23.1 11 Este 21 Este 0 853.3 0.1 30
2019-08-16 11:00:00 22.3 12 Este 19 Este 0 853.1 0.4 33
2019-08-16 10:00:00 22 8 Este 14 Sudeste 0 853 0.4 33
2019-08-16 09:00:00 21 8 Sudeste 13 Sudeste 0 853.2 0.5 35
2019-08-16 08:00:00 18.7 7 Sudeste 15 Sudeste 0 852.7 -0.3 40
2019-08-16 07:00:00 17.8 10 Sudeste 15 Sudeste 0 852.6 -0.5 40
2019-08-16 06:00:00 17.8 11 Sudeste 18 Sudeste 0 852.7 -0.5 40
2019-08-16 05:00:00 17.2 12 Sudeste 18 Sudeste 0 853 -0.5 40
2019-08-16 04:00:00 17.7 10 Sudeste 14 Sudeste 0 853.1 -0.6 36
2019-08-16 03:00:00 19.6 7 Sudeste 10 Sudeste 0 853.2 -0.4 32
2019-08-16 02:00:00 18.9 7 Sudeste 12 Sudeste 0 853.5 0 32
2019-08-16 01:00:00 19.4 11 Oeste 23 Oeste 0 853.7 0.4 32
2019-08-16 00:00:00 19.7 18 Oeste 30 Oeste 0 853.6 0.7 30
2019-08-15 23:00:00 20.5 20 Oeste 28 Oeste 0 853.5 0.5 26
2019-08-15 22:00:00 20.8 17 Noroeste 27 Noroeste 0 853.3 0.4 22
2019-08-15 21:00:00 23.6 19 Noroeste 33 Noroeste 0 852.9 -0.1 18
2019-08-15 20:00:00 25.3 20 Noroeste 37 Noroeste 0 853 -0.4 16
2019-08-15 19:00:00 26.5 18 Noroeste 33 Noroeste 0 852.9 -0.7 16
2019-08-15 18:00:00 26.3 18 Noroeste 35 Noroeste 0 853 -0.9 16
2019-08-15 17:00:00 26.4 16 Noroeste 34 Oeste 0 853.4 -0.5 18
2019-08-15 16:00:00 25.8 17 Noroeste 35 Noroeste 0 853.6 -0.7 20
2019-08-15 15:00:00 25.5 20 Noroeste 34 Noroeste 0 853.9 -0.4 23
2019-08-15 14:00:00 24.7 18 Oeste 32 Noroeste 0 853.9 -0.5 29
2019-08-15 13:00:00 23.5 19 Noroeste 32 Oeste 0 854.3 0 33
2019-08-15 12:00:00 21.9 15 Noroeste 28 Noroeste 0 854.3 0.2 36
2019-08-15 11:00:00 19.7 19 Noroeste 29 Oeste 0 854.4 0.5 44
2019-08-15 10:00:00 17.3 18 Oeste 28 Noroeste 0 854.3 0.6 53
2019-08-15 09:00:00 14.9 18 Noroeste 24 Noroeste 0 854.1 0.6 62
2019-08-15 08:00:00 13.2 18 Noroeste 28 Noroeste 0 853.9 0.6 64
2019-08-15 07:00:00 14 22 Noroeste 31 Noroeste 0 853.7 -0.1 56
2019-08-15 06:00:00 14.6 14 Noroeste 18 Noroeste 0 853.5 -0.5 50
2019-08-15 05:00:00 14.8 15 Noroeste 20 Noroeste 0 853.3 -0.7 48
2019-08-15 04:00:00 15.1 16 Noroeste 23 Oeste 0 853.8 -0.3 42
2019-08-15 03:00:00 16.1 19 Noroeste 27 Noroeste 0 854 -0.3 29
2019-08-15 02:00:00 18 12 Noroeste 16 Noroeste 0 854 -0.2 23
2019-08-15 01:00:00 18 11 Noroeste 19 Noroeste 0 854.1 0.2 22
2019-08-15 00:00:00 17.8 11 Noroeste 18 Noroeste 0 854.3 0.9 21
2019-08-14 23:00:00 18.4 12 Noroeste 21 Oeste 0 854.2 1 19
2019-08-14 22:00:00 18.9 13 Noroeste 27 Noroeste 0 853.9 0.6 19
2019-08-14 21:00:00 22.3 17 Noroeste 26 Noroeste 0 853.4 -0.2 14
2019-08-14 20:00:00 24.3 17 Noroeste 30 Noroeste 0 853.2 -0.4 13
2019-08-14 19:00:00 24.9 15 Noroeste 30 Noroeste 0 853.3 -0.4 12
2019-08-14 18:00:00 25.1 18 Noroeste 39 Noroeste 0 853.6 -0.5 12
2019-08-14 17:00:00 25.2 17 Oeste 35 Oeste 0 853.6 -0.4 13
2019-08-14 16:00:00 24.7 19 Noroeste 33 Oeste 0 853.7 -0.6 14
2019-08-14 15:00:00 24 17 Noroeste 34 Noroeste 0 854.1 -0.3 14
2019-08-14 14:00:00 23.4 14 Oeste 28 Noroeste 0 854 -0.2 15
2019-08-14 13:00:00 22.1 12 Noroeste 28 Noroeste 0 854.3 0.3 16
2019-08-14 12:00:00 20.4 14 Oeste 23 Oeste 0 854.4 0.6 18
2019-08-14 11:00:00 20.1 12 Noroeste 20 Noroeste 0 854.2 0.4 19
2019-08-14 10:00:00 17.9 9 Noroeste 14 Noroeste 0 854 0.5 20
2019-08-14 09:00:00 16.2 6 Noroeste 10 Noroeste 0 853.8 0.6 21
2019-08-14 08:00:00 14.2 5 Este 11 Este 0 853.8 0.3 23
2019-08-14 07:00:00 13.7 8 Este 11 Oeste 0 853.5 -0.1 23
2019-08-14 06:00:00 15.1 9 Oeste 19 Oeste 0 853.2 -0.5 22
2019-08-14 05:00:00 14.4 12 Oeste 19 Oeste 0 853.5 -0.3 23
2019-08-14 04:00:00 13.7 14 Oeste 21 Oeste 0 853.6 0 23
2019-08-14 03:00:00 13 12 Noroeste 15 Noroeste 0 853.7 0 23
2019-08-14 02:00:00 13.3 11 Noroeste 17 Noroeste 0 853.8 0.3 22
2019-08-14 01:00:00 13.7 15 Noroeste 21 Noroeste 0 853.6 0.5 21
2019-08-14 00:00:00 14.3 10 Noroeste 27 Noroeste 0 853.7 1.2 21
2019-08-13 23:00:00 15.4 17 Noroeste 30 Oeste 0 853.5 1.2 19
2019-08-13 22:00:00 15.9 17 Noroeste 29 Noroeste 0 853.1 0.7 17
2019-08-13 21:00:00 18.4 22 Noroeste 35 Oeste 0 852.5 0.2 14
2019-08-13 20:00:00 20.1 23 Noroeste 37 Noroeste 0 852.3 -0.3 13
2019-08-13 19:00:00 21.4 17 Noroeste 38 Noroeste 0 852.4 -0.3 13
2019-08-13 18:00:00 20.3 22 Noroeste 39 Oeste 0 852.3 -0.6 13
2019-08-13 17:00:00 21.6 19 Noroeste 40 Oeste 0 852.6 -0.5 13
2019-08-13 16:00:00 20.5 18 Noroeste 37 Noroeste 0 852.7 -0.5 14
2019-08-13 15:00:00 19.3 19 Noroeste 37 Noroeste 0 852.9 -0.5 15
2019-08-13 14:00:00 18 17 Noroeste 32 Oeste 0 853.1 0 22
2019-08-13 13:00:00 17.8 18 Oeste 31 Noroeste 0 853.2 0.4 23
2019-08-13 12:00:00 16.7 14 Noroeste 27 Oeste 0 853.4 0.8 26
2019-08-13 11:00:00 15.6 8 Noroeste 14 Noroeste 0 853.1 0.8 29
2019-08-13 10:00:00 13.7 9 Noroeste 12 Noroeste 0 852.8 0.7 31
2019-08-13 09:00:00 11.9 5 Noroeste 6 Noroeste 0 852.6 0.4 33
2019-08-13 08:00:00 10.9 0 Calma 5 Sudeste 0 852.3 0.2 35
2019-08-13 07:00:00 9.2 4 Oeste 10 Sudeste 0 852.1 -0.3 39
2019-08-13 06:00:00 9.5 8 Este 13 Este 0 852.2 -0.7 41
2019-08-13 05:00:00 9.7 10 Sudeste 12 Sudeste 0 852.1 -1.2 41
2019-08-13 04:00:00 9.7 8 Sudeste 14 Sudeste 0 852.4 -0.7 41
2019-08-13 03:00:00 9.5 6 Oeste 18 Oeste 0 852.9 0.1 42
2019-08-13 02:00:00 10 15 Oeste 24 Oeste 0 853.3 0.7 37
2019-08-13 01:00:00 10.6 18 Oeste 26 Oeste 0 853.1 0.7 31
2019-08-13 00:00:00 11.5 11 Oeste 16 Noroeste 0 852.8 0.7 26
2019-08-12 23:00:00 12.2 12 Noroeste 21 Noroeste 0 852.6 1 24
2019-08-12 22:00:00 12.7 12 Noroeste 26 Oeste 0 852.4 1.1 23
2019-08-12 21:00:00 14.2 17 Noroeste 35 Noroeste 0 852.1 -- 19
2019-08-12 20:00:00 17.3 20 Noroeste 35 Noroeste 0 851.6 -- 16
2019-08-12 19:00:00 18.9 17 Noroeste 31 Noroeste 0 851.3 -- 15
2019-08-12 18:00:00 -- 11 Norte -- -- -- -- -- --
2019-08-12 17:00:00 -- -- -- -- -- -- -- -- --
2019-08-12 16:00:00 -- -- -- -- -- -- -- -- --
2019-08-12 15:00:00 -- -- -- -- -- -- -- -- --
2019-08-12 14:00:00 -- -- -- -- -- -- -- -- --
2019-08-12 13:00:00 -- -- -- -- -- -- -- -- --
2019-08-12 12:00:00 -- -- -- -- -- -- -- -- --
2019-08-12 11:00:00 -- -- -- -- -- -- -- -- --
2019-08-12 10:00:00 6.8 30 Oeste 45 Oeste 0 851.4 1.5 84
2019-08-12 09:00:00 5.8 32 Noroeste 47 Noroeste 0 850.9 1 84
2019-08-12 08:00:00 5.8 34 Noroeste 48 Noroeste 0 850.1 0.2 84
2019-08-12 07:00:00 5.8 31 Noroeste 43 Oeste 0 849.9 0 83
2019-08-12 06:00:00 5.7 28 Oeste 44 Oeste 0 849.9 -0.6 81
2019-08-12 05:00:00 5.4 31 Noroeste 50 Noroeste 0 849.9 -0.9 77
2019-08-12 04:00:00 6.3 35 Noroeste 52 Oeste 0 849.9 -1.1 68
2019-08-12 03:00:00 7.5 36 Noroeste 50 Noroeste 0 850.5 -0.5 58
2019-08-12 02:00:00 8.3 37 Noroeste 53 Oeste 0 850.8 0 52
2019-08-12 01:00:00 9.5 35 Noroeste 51 Oeste 0 851 0.5 41
2019-08-12 00:00:00 11.1 30 Noroeste 49 Oeste 0 851 0.9 33
2019-08-11 23:00:00 12.4 33 Noroeste 46 Noroeste 0 850.8 0.9 31
2019-08-11 22:00:00 13.3 29 Noroeste 43 Noroeste 0 850.5 0.7 30
2019-08-11 21:00:00 14.7 26 Noroeste 42 Noroeste 0 850.1 0.5 28
2019-08-11 20:00:00 16.1 25 Noroeste 42 Noroeste 0 849.9 0.1 28
2019-08-11 19:00:00 17.9 27 Noroeste 47 Noroeste 0 849.8 -0.1 29
2019-08-11 18:00:00 18.5 28 Noroeste 48 Noroeste 0 849.6 -0.5 31
2019-08-11 17:00:00 17.8 27 Noroeste 44 Noroeste 0 849.8 -0.4 35
2019-08-11 16:00:00 18.3 22 Noroeste 42 Noroeste 0 849.9 -0.3 36
2019-08-11 15:00:00 18.8 24 Noroeste 43 Noroeste 0 850.1 -0.1 36
2019-08-11 14:00:00 17.6 24 Noroeste 40 Noroeste 0 850.2 -0.1 38
2019-08-11 13:00:00 18.4 20 Noroeste 32 Noroeste 0 850.2 0.3 35
2019-08-11 12:00:00 17.9 22 Noroeste 40 Noroeste 0 850.2 0.4 30
2019-08-11 11:00:00 18.4 4 Oeste 24 Oeste 0 850.3 0.7 30
2019-08-11 10:00:00 17.2 8 Sur 21 Sur 0 849.9 1 31
2019-08-11 09:00:00 12.9 4 Noroeste 16 Noroeste 0 849.8 0.4 54
2019-08-11 08:00:00 10.1 14 Noroeste 22 Oeste 0 849.6 0.2 63
2019-08-11 07:00:00 11 15 Noroeste 40 Oeste 0 848.9 -1.1 57
2019-08-11 06:00:00 10.6 34 Noroeste 52 Noroeste 0 849.4 -0.9 59
2019-08-11 05:00:00 12.1 31 Noroeste 41 Noroeste 0 849.4 -0.9 47
2019-08-11 04:00:00 12.1 23 Noroeste 32 Oeste 0 850 -0.7 46
2019-08-11 03:00:00 12.8 21 Oeste 30 Oeste 0 850.3 -0.7 42
2019-08-11 02:00:00 14.7 18 Oeste 36 Oeste 0 850.3 -1.2 36
2019-08-11 01:00:00 15.1 24 Noroeste 34 Oeste 0 850.7 -0.8 34
2019-08-11 00:00:00 16.4 17 Oeste 52 Oeste 0 851 -0.3 31
2019-08-10 23:00:00 16.9 18 Noroeste 30 Oeste 0 851.5 0.2 29
2019-08-10 22:00:00 18 19 Oeste 31 Noroeste 0 851.5 0.2 26
2019-08-10 21:00:00 19.5 12 Noroeste 24 Sudoeste 0 851.3 -0.1 16
2019-08-10 20:00:00 21.3 10 Sudoeste 24 Sudeste 0 851.3 -0.2 14
2019-08-10 19:00:00 21.9 12 Este 26 Sudeste 0 851.3 -0.9 17
2019-08-10 18:00:00 22.2 17 Sudeste 36 Este 0 851.4 -1 21
2019-08-10 17:00:00 23.3 16 Este 30 Sudeste 0 851.5 -1.2 18
2019-08-10 16:00:00 23.6 15 Sudeste 32 Sudeste 0 852.2 -0.6 18
2019-08-10 15:00:00 21.5 12 Este 26 Sudeste 0 852.4 -0.7 24
2019-08-10 14:00:00 21 12 Este 24 Este 0 852.7 -0.2 25
2019-08-10 13:00:00 19.4 3 Norte 20 Noroeste 0 852.8 -0.1 33
2019-08-10 12:00:00 15.4 12 Noroeste 19 Noroeste 0 853.1 0.6 48
2019-08-10 11:00:00 14.2 11 Noroeste 18 Noroeste 0 852.9 0.8 51
2019-08-10 10:00:00 14.1 4 Noroeste 21 Este 0 852.9 0.9 49
2019-08-10 09:00:00 15 8 Este 15 Noroeste 0 852.5 0.9 50
2019-08-10 08:00:00 9.1 7 Noroeste 24 Oeste 0 852.1 0.5 76
2019-08-10 07:00:00 9.1 19 Oeste 34 Oeste 0 852 0.2 79
2019-08-10 06:00:00 9.4 26 Oeste 36 Noroeste 0 851.6 -0.1 81
2019-08-10 05:00:00 9.4 23 Noroeste 33 Noroeste 0 851.6 -0.4 81
2019-08-10 04:00:00 10.9 25 Noroeste 35 Noroeste 0 851.8 0.1 71
2019-08-10 03:00:00 11.6 25 Noroeste 33 Oeste 0 851.7 -0.3 65
2019-08-10 02:00:00 11.9 26 Oeste 36 Oeste 0 852 0 73
2019-08-10 01:00:00 12.7 26 Noroeste 35 Noroeste 0 851.7 0.3 78
2019-08-10 00:00:00 13.2 20 Noroeste 27 Noroeste 0 852 0.6 81
2019-08-09 23:00:00 13.1 17 Oeste 23 Oeste 0 852 0.6 81
2019-08-09 22:00:00 15.3 15 Noroeste 25 Noroeste 0 851.4 0 74
2019-08-09 21:00:00 13.3 18 Noroeste 32 Noroeste 0 851.4 0.8 80
2019-08-09 20:00:00 13.6 22 Noroeste 40 Noroeste 0 851.4 0.7 79
2019-08-09 19:00:00 14 29 Noroeste 46 Noroeste 0 851.4 0.6 78
2019-08-09 18:00:00 20 17 Noroeste 35 Noroeste 0 850.6 0 54
2019-08-09 17:00:00 21.3 9 Noroeste 27 Noroeste 0 850.7 -0.1 52
2019-08-09 16:00:00 20.5 22 Oeste 45 Oeste 0 850.8 -0.1 51
2019-08-09 15:00:00 24.5 15 Oeste 34 Oeste 0 850.6 -0.1 39
2019-08-09 14:00:00 25.9 10 Sudoeste 30 Oeste 0 850.8 0.5 37
2019-08-09 13:00:00 21.7 11 Este 25 Este 0 850.9 0.9 49
2019-08-09 12:00:00 22.1 10 Sudeste 19 Este 0 850.7 0.9 49
2019-08-09 11:00:00 20.9 5 Sudeste 29 Oeste 0 850.3 0.8 44
2019-08-09 10:00:00 19.7 17 Oeste 42 Oeste 0 850 0.7 45
2019-08-09 09:00:00 18.9 12 Sudoeste 31 Sudoeste 0 849.8 0.6 43
2019-08-09 08:00:00 17.6 11 Sur 36 Sur 0 849.5 0.1 43
2019-08-09 07:00:00 18.5 18 Sudoeste 37 Sudoeste 0 849.3 0.2 37
2019-08-09 06:00:00 18.8 19 Sudoeste 35 Sudoeste 0 849.2 -0.3 38
2019-08-09 05:00:00 17.8 6 Este 37 Sudoeste 0 849.4 -0.4 42
2019-08-09 04:00:00 19.9 21 Sudoeste 42 Oeste 0 849.1 -1 34
2019-08-09 03:00:00 20 21 Oeste 37 Oeste 0 849.5 -0.5 34
2019-08-09 02:00:00 20.1 21 Oeste 36 Oeste 0 849.8 -0.1 35
2019-08-09 01:00:00 20.3 16 Oeste 31 Oeste 0 850.1 0.6 35
2019-08-09 00:00:00 20.4 18 Oeste 37 Oeste 0 850 1 35
2019-08-08 23:00:00 20.4 18 Oeste 33 Oeste 0 849.9 1 34
2019-08-08 22:00:00 21.1 19 Sudoeste 45 Oeste 0 849.5 0.6 33
2019-08-08 21:00:00 22.5 24 Sudoeste 44 Sudoeste 0 849 0 29
2019-08-08 20:00:00 24.4 20 Sudoeste 37 Oeste 0 848.9 -0.1 25
2019-08-08 19:00:00 25.4 15 Sudoeste 37 Oeste 0 848.9 -0.5 25
2019-08-08 18:00:00 25.7 14 Sudoeste 32 Oeste 0 849 -1 27
2019-08-08 17:00:00 26.4 10 Oeste 27 Noroeste 0 849 -0.6 28
2019-08-08 16:00:00 26.3 5 Sudoeste 28 Oeste 0 849.4 -0.6 30
2019-08-08 15:00:00 23.1 8 Sur 39 Sudeste 0 850 0 35
2019-08-08 14:00:00 24 14 Este 33 Este 0 849.6 -0.6 33
2019-08-08 13:00:00 22 15 Este 30 Este 0 850 0.1 35
2019-08-08 12:00:00 21.1 13 Este 25 Este 0 850 0.2 38
2019-08-08 11:00:00 19.2 3 Norte 23 Noroeste 0 850.2 0.8 53
2019-08-08 10:00:00 17.9 13 Noroeste 25 Noroeste 0 849.9 0.6 55
2019-08-08 09:00:00 16.1 11 Noroeste 16 Noroeste 0 849.8 0.7 54
2019-08-08 08:00:00 14.3 7 Oeste 17 Noroeste 0 849.4 0.1 54
2019-08-08 07:00:00 14 13 Oeste 24 Oeste 0 849.3 -0.1 52
2019-08-08 06:00:00 14.5 19 Oeste 27 Oeste 0 849.1 -0.5 50
2019-08-08 05:00:00 13.7 19 Noroeste 29 Noroeste 0 849.3 -0.1 53
2019-08-08 04:00:00 12.9 21 Noroeste 27 Noroeste 0 849.4 0 56
2019-08-08 03:00:00 13.1 17 Noroeste 36 Oeste 0 849.6 -0.1 57
2019-08-08 02:00:00 14.1 26 Noroeste 34 Oeste 0 849.4 -0.1 58
2019-08-08 01:00:00 13.8 20 Noroeste 34 Oeste 0 849.4 0.3 65
2019-08-08 00:00:00 13.8 22 Noroeste 28 Noroeste 0 849.7 0.9 69
2019-08-07 23:00:00 14.1 18 Noroeste 28 Oeste 0 849.5 0.9 68
2019-08-07 22:00:00 14.9 16 Noroeste 30 Oeste 0 849.1 0 64
2019-08-07 21:00:00 16.5 23 Noroeste 64 Oeste 0 848.8 -0.7 57
2019-08-07 20:00:00 17.1 22 Noroeste 37 Noroeste 0 848.6 -0.9 55
2019-08-07 19:00:00 17 18 Noroeste 31 Noroeste 0 849.1 0.1 59
2019-08-07 18:00:00 17.2 6 Noroeste 21 Sudoeste 0 849.5 -0.6 63
2019-08-07 17:00:00 16.2 8 Oeste 34 Noroeste 0.2 849.5 -0.4 69
2019-08-07 16:00:00 14.6 5 Noroeste 19 Noroeste 0.6 849 -0.6 70
2019-08-07 15:00:00 13.7 14 Oeste 30 Noroeste 1 850.1 1.1 74
2019-08-07 14:00:00 15.7 15 Noroeste 24 Oeste 0.2 849.9 1.3 67
2019-08-07 13:00:00 17.4 14 Oeste 26 Oeste 0 849.6 1.6 60
2019-08-07 12:00:00 17.3 17 Oeste 28 Noroeste 0 849 1.4 58
2019-08-07 11:00:00 16.6 15 Noroeste 32 Noroeste 0 848.6 1.1 60
2019-08-07 10:00:00 16.7 23 Oeste 38 Oeste 0 848 1 60
2019-08-07 09:00:00 15.2 24 Noroeste 34 Noroeste 0 847.6 0.6 60
2019-08-07 08:00:00 14.6 19 Noroeste 26 Oeste 0 847.5 1 58
2019-08-07 07:00:00 14.9 14 Oeste 20 Oeste 0 847 -0.4 57
2019-08-07 06:00:00 15.7 10 Noroeste 26 Oeste 0 847 -0.1 54
2019-08-07 05:00:00 15.6 18 Noroeste 33 Noroeste 0 846.5 -1.1 50
2019-08-07 04:00:00 16.3 21 Oeste 37 Oeste 0 847.4 -0.6 43
2019-08-07 03:00:00 17.1 23 Noroeste 34 Noroeste 0 847.1 -1.3 39
2019-08-07 02:00:00 17.9 23 Noroeste 33 Oeste 0 847.6 -0.6 38
2019-08-07 01:00:00 18.5 23 Noroeste 41 Oeste 0 848 0.4 37
2019-08-07 00:00:00 19.3 28 Noroeste 41 Noroeste 0 848.4 1 32
2019-08-06 23:00:00 21 25 Noroeste 40 Oeste 0 848.2 0.8 28
2019-08-06 22:00:00 22.3 24 Noroeste 40 Noroeste 0 847.6 0.2 26
2019-08-06 21:00:00 23.5 10 Noroeste 21 Noroeste 0 847.4 -0.4 26
2019-08-06 20:00:00 26 14 Noroeste 31 Noroeste 0 847.4 -0.4 22
2019-08-06 19:00:00 26.3 12 Sudoeste 28 Sudoeste 0 847.4 -0.8 19
2019-08-06 18:00:00 27.1 10 Sudoeste 39 Sudeste 0 847.8 -1 19
2019-08-06 17:00:00 26.8 19 Sudeste 45 Este 0 847.8 -1.3 20
2019-08-06 16:00:00 27.7 19 Sudeste 45 Este 0 848.2 -1.3 20
2019-08-06 15:00:00 27.5 13 Este 36 Este 0 848.8 -0.7 20
2019-08-06 14:00:00 27 15 Este 34 Este 0 849.1 -0.5 21
2019-08-06 13:00:00 25.4 15 Este 31 Este 0 849.5 0 22
2019-08-06 12:00:00 24.3 15 Este 27 Sudeste 0 849.5 -0.3 24
2019-08-06 11:00:00 23.2 11 Este 22 Este 0 849.6 -0.1 26
2019-08-06 10:00:00 22 10 Este 19 Este 0 849.5 0.2 28
2019-08-06 09:00:00 16.6 8 Noroeste 16 Noroeste 0 849.8 0.4 42
2019-08-06 08:00:00 15.3 12 Noroeste 14 Oeste 0 849.7 0.2 37
2019-08-06 07:00:00 18.5 5 Sur 12 Sur 0 849.3 -0.2 32
2019-08-06 06:00:00 16.9 8 Oeste 15 Oeste 0 849.4 -0.5 36
2019-08-06 05:00:00 16.1 13 Oeste 26 Oeste 0 849.5 -0.6 37
2019-08-06 04:00:00 17.4 20 Noroeste 31 Oeste 0 849.5 -0.6 33
2019-08-06 03:00:00 17.7 22 Noroeste 30 Oeste 0 849.9 -0.1 33
2019-08-06 02:00:00 18.2 22 Noroeste 32 Oeste 0 850.1 0.1 31
2019-08-06 01:00:00 19.1 23 Noroeste 33 Oeste 0 850.1 0.4 26
2019-08-06 00:00:00 19.4 18 Noroeste 23 Noroeste 0 850 0.8 25
2019-08-05 23:00:00 20.6 14 Noroeste 23 Noroeste 0 850 1 23
2019-08-05 22:00:00 22.2 12 Oeste 23 Noroeste 0 849.7 0.6 21
2019-08-05 21:00:00 25.4 15 Noroeste 28 Oeste 0 849.2 0 18
2019-08-05 20:00:00 27.4 13 Noroeste 27 Oeste 0 849 -0.5 14
2019-08-05 19:00:00 28.1 13 Oeste 26 Oeste 0 849.1 -0.7 12
2019-08-05 18:00:00 28.2 11 Oeste 31 Oeste 0 849.2 -1 12
2019-08-05 17:00:00 28.1 9 Oeste 30 Oeste 0 849.5 -0.9 12
2019-08-05 16:00:00 28.3 8 Sudoeste 31 Sudeste 0 849.8 -0.7 13
2019-08-05 15:00:00 27.6 9 Sudoeste 29 Sur 0 850.2 -0.7 14
2019-08-05 14:00:00 26.7 10 Oeste 29 Oeste 0 850.4 -0.5 17
2019-08-05 13:00:00 26.5 4 Sudoeste 37 Este 0 850.5 -0.4 19
2019-08-05 12:00:00 24.2 10 Este 25 Sudeste 0 850.9 0.1 23
2019-08-05 11:00:00 24.2 2 Sudoeste 27 Sudoeste 0 850.9 0.1 23
2019-08-05 10:00:00 22.7 8 Oeste 26 Oeste 0 850.9 0.3 25
2019-08-05 09:00:00 21.4 8 Sudoeste 17 Sudoeste 0 850.8 0.4 28
2019-08-05 08:00:00 20.3 9 Sudoeste 17 Sudoeste 0 850.8 0.1 30
2019-08-05 07:00:00 16.9 6 Noroeste 10 Oeste 0 850.6 -0.1 34
2019-08-05 06:00:00 16.7 8 Noroeste 17 Noroeste 0 850.4 -0.5 34
2019-08-05 05:00:00 16.7 15 Oeste 19 Oeste 0 850.7 -0.4 33
2019-08-05 04:00:00 17.5 15 Oeste 25 Oeste 0 850.7 -0.6 30
2019-08-05 03:00:00 18.9 17 Oeste 27 Oeste 0 850.9 -0.2 29
2019-08-05 02:00:00 19.7 18 Oeste 27 Noroeste 0 851.1 -0.2 29
2019-08-05 01:00:00 19.2 21 Noroeste 32 Noroeste 0 851.3 0.6 30
2019-08-05 00:00:00 20.6 17 Noroeste 23 Noroeste 0 851.1 0.9 28
2019-08-04 23:00:00 21 13 Noroeste 17 Noroeste 0 851.3 1.5 27
2019-08-04 22:00:00 22.7 9 Noroeste 14 Norte 0 850.7 1 24
2019-08-04 21:00:00 24.1 9 Norte 21 Noroeste 0 850.2 0.6 21
2019-08-04 20:00:00 25.4 7 Sudeste 26 Sudeste 0 849.8 0.1 17
2019-08-04 19:00:00 27 14 Sudeste 36 Este 0 849.7 -0.5 14
2019-08-04 18:00:00 27.7 9 Sudeste 26 Oeste 0 849.6 -0.9 12
2019-08-04 17:00:00 28.2 4 Sur 21 Sur 0 849.7 -0.9 12
2019-08-04 16:00:00 28.8 6 Sudoeste 24 Noroeste 0 850.2 -0.8 12
2019-08-04 15:00:00 26.9 0 Calma 31 Sudoeste 0 850.5 -0.4 12
2019-08-04 14:00:00 27 4 Sudoeste 26 Sudoeste 0 850.6 -0.2 12
2019-08-04 13:00:00 25.2 8 Sudoeste 25 Sudoeste 0 851 0.4 15
2019-08-04 12:00:00 24.7 7 Sudoeste 24 Sur 0 850.9 0.5 18
2019-08-04 11:00:00 24.1 7 Sur 25 Sudoeste 0 850.8 0.7 21
2019-08-04 10:00:00 23 8 Sudeste 13 Sudeste 0 850.6 0.4 26
2019-08-04 09:00:00 21.4 8 Este 12 Este 0 850.4 0.3 30
2019-08-04 08:00:00 19 8 Sudeste 16 Oeste 0 850.1 0.1 36
2019-08-04 07:00:00 15.4 13 Oeste 18 Oeste 0 850.2 0 41
2019-08-04 06:00:00 15.5 14 Noroeste 19 Noroeste 0 850.1 -0.1 39
2019-08-04 05:00:00 16.1 17 Noroeste 23 Noroeste 0 850 0 36
2019-08-04 04:00:00 16.6 18 Noroeste 29 Oeste 0 850.2 0 33
2019-08-04 03:00:00 17.7 23 Noroeste 33 Noroeste 0 850.2 -0.1 29
2019-08-04 02:00:00 18.6 23 Noroeste 29 Noroeste 0 850 -0.3 27
2019-08-04 01:00:00 20.2 19 Noroeste 27 Noroeste 0 850.2 0.6 25
2019-08-04 00:00:00 20 14 Noroeste 18 Oeste 0 850.3 1.2 22
2019-08-03 23:00:00 20.8 13 Noroeste 19 Noroeste 0 850.3 1.4 21
2019-08-03 22:00:00 22.1 12 Noroeste 20 Noroeste 0 849.6 0.6 18
2019-08-03 21:00:00 26 4 Norte 19 Sudeste 0 849.1 0.1 12
2019-08-03 20:00:00 26 12 Este 32 Sudeste 0 848.9 -0.8 12
2019-08-03 19:00:00 27.1 14 Sudeste 27 Este 0 849 -1 12
2019-08-03 18:00:00 28.5 9 Sur 30 Sudoeste 0 849 -1.2 12
2019-08-03 17:00:00 28.3 7 Oeste 34 Sudeste 0 849.7 -0.8 14
2019-08-03 16:00:00 28.3 3 Oeste 32 Sudeste 0 850 -0.8 14
2019-08-03 15:00:00 27.8 3 Sudoeste 35 Sudeste 0 850.2 -0.5 15
2019-08-03 14:00:00 26 13 Sudeste 36 Este 0 850.5 0.1 21
2019-08-03 13:00:00 24.8 11 Sudeste 28 Este 0 850.8 0.4 22
2019-08-03 12:00:00 23.7 9 Este 18 Este 0 850.7 0.2 25
2019-08-03 11:00:00 21.9 10 Este 17 Sudeste 0 850.4 0.1 28
2019-08-03 10:00:00 20.5 12 Sudeste 20 Sudeste 0 850.4 0.2 30
2019-08-03 09:00:00 19.1 15 Sudeste 21 Sudeste 0 850.5 0.7 29
2019-08-03 08:00:00 18.1 12 Sudeste 19 Sudeste 0 850.3 0.3 28
2019-08-03 07:00:00 18.1 13 Sudeste 20 Sudeste 0 850.2 0.2 27
2019-08-03 06:00:00 19 13 Sudeste 19 Sudeste 0 849.8 -0.4 25
2019-08-03 05:00:00 18.2 13 Sudeste 19 Sudeste 0 850 -0.3 26
2019-08-03 04:00:00 19.7 11 Sudeste 14 Sudeste 0 850 -0.7 22
2019-08-03 03:00:00 19.9 9 Sudeste 15 Sudoeste 0 850.2 -0.7 22
2019-08-03 02:00:00 20.4 7 Noroeste 17 Oeste 0 850.3 -0.8 21
2019-08-03 01:00:00 19.5 15 Noroeste 22 Oeste 0 850.7 0.1 20
2019-08-03 00:00:00 21.3 15 Oeste 23 Oeste 0 850.9 0.5 19
2019-08-02 23:00:00 21.3 13 Oeste 23 Oeste 0 851.1 0.9 18
2019-08-02 22:00:00 22.7 13 Oeste 24 Noroeste 0 850.6 0.5 15
2019-08-02 21:00:00 25.5 10 Sudoeste 21 Oeste 0 850.4 0.3 12
2019-08-02 20:00:00 27.1 9 Sudoeste 19 Sur 0 850.2 -0.4 14
2019-08-02 19:00:00 27 11 Sudeste 28 Este 0 850.1 -0.8 14
2019-08-02 18:00:00 27.2 10 Este 21 Este 0 850.1 -0.8 16
2019-08-02 17:00:00 27.3 5 Este 26 Este 0 850.6 -0.4 17
2019-08-02 16:00:00 26.1 12 Sudeste 28 Este 0 850.9 -0.2 18
2019-08-02 15:00:00 26.9 10 Este 30 Este 0 850.9 -0.2 19
2019-08-02 14:00:00 26.3 10 Este 32 Este 0 851 0 20
2019-08-02 13:00:00 24.6 13 Este 27 Sudeste 0 851.1 0.1 21
2019-08-02 12:00:00 23.8 10 Este 24 Este 0 851.1 0.4 21
2019-08-02 11:00:00 22 12 Este 21 Este 0 851 0.7 22
2019-08-02 10:00:00 22 8 Este 14 Este 0 851 0.9 24
2019-08-02 09:00:00 20.7 5 Este 9 Este 0 850.7 0.6 25
2019-08-02 08:00:00 18 5 Este 7 Este 0 850.3 0.3 27
2019-08-02 07:00:00 15.4 5 Oeste 12 Noroeste 0 850.1 0 30
2019-08-02 06:00:00 14.6 11 Noroeste 17 Oeste 0 850.1 0 30
2019-08-02 05:00:00 16.6 10 Noroeste 17 Noroeste 0 850 -0.1 26
2019-08-02 04:00:00 17.4 10 Oeste 17 Oeste 0 850.1 -0.2 25
2019-08-02 03:00:00 17 13 Noroeste 17 Noroeste 0 850.1 0 26
2019-08-02 02:00:00 17.3 12 Oeste 18 Oeste 0 850.1 0.2 26
2019-08-02 01:00:00 18.1 14 Oeste 21 Noroeste 0 850.3 1.1 25
2019-08-02 00:00:00 18.4 15 Noroeste 22 Noroeste 0 850.1 1.4 24
2019-08-01 23:00:00 18.8 14 Noroeste 22 Noroeste 0 849.9 1.5 23
2019-08-01 22:00:00 19.7 15 Noroeste 31 Noroeste 0 849.2 0.9 22
2019-08-01 21:00:00 22.5 18 Noroeste 40 Noroeste 0 848.7 0.3 19
2019-08-01 20:00:00 24.1 18 Noroeste 35 Oeste 0 848.4 0 18
2019-08-01 19:00:00 25.1 17 Noroeste 32 Noroeste 0 848.3 -0.3 18
2019-08-01 18:00:00 25.3 15 Oeste 26 Noroeste 0 848.4 -0.4 19
2019-08-01 17:00:00 24.2 5 Este 16 Oeste 0 848.4 -0.3 23
2019-08-01 16:00:00 23.8 4 Sudeste 20 Noroeste 0 848.6 -0.2 24
2019-08-01 15:00:00 25.3 3 Sudoeste 21 Norte 0 848.8 0.2 22
2019-08-01 14:00:00 23.2 6 Este 21 Sudeste 0 848.7 0.4 29
2019-08-01 13:00:00 21 9 Este 21 Este 0 848.8 0.6 36
2019-08-01 12:00:00 21 9 Sudeste 21 Este 0 848.6 0.5 39
2019-08-01 11:00:00 19.2 12 Este 21 Este 0 848.3 0.5 49
2019-08-01 10:00:00 17.2 13 Este 23 Este 0 848.2 0.5 58
2019-08-01 09:00:00 16.3 17 Sudeste 26 Este 0 848.1 0.4 64
2019-08-01 08:00:00 14 16 Este 26 Este 0 847.8 0.1 74
2019-08-01 07:00:00 13.8 17 Sudeste 27 Este 0 847.7 -0.1 76
2019-08-01 06:00:00 14.5 19 Este 32 Sudeste 0 847.7 -0.3 77
2019-08-01 05:00:00 15.2 23 Sudeste 33 Sudeste 0 847.7 -0.6 74
2019-08-01 04:00:00 15.9 19 Sudeste 34 Sudeste 0 847.8 -0.9 72
2019-08-01 03:00:00 16.6 18 Sudeste 31 Sudeste 0 848 -0.7 69
2019-08-01 02:00:00 17.3 16 Sudeste 33 Sudeste 0 848.3 -0.5 65
2019-08-01 01:00:00 18.1 17 Sudeste 35 Este 0 848.7 0.2 60
2019-08-01 00:00:00 19.5 18 Sudeste 30 Este 0 848.7 0.4 54
2019-07-31 23:00:00 20.3 12 Sudeste 26 Sudeste 0 848.8 0.5 43
2019-07-31 22:00:00 21 12 Oeste 19 Oeste 0 848.5 0.1 27
2019-07-31 21:00:00 23.2 5 Sudeste 14 Este 0 848.3 -0.5 25
2019-07-31 20:00:00 24.3 8 Sudeste 25 Sudeste 0 848.3 -0.6 23
2019-07-31 19:00:00 23.8 13 Sudeste 35 Este 0 848.4 -1 24
2019-07-31 18:00:00 23.3 8 Sudeste 37 Sudeste 0 848.8 -0.8 26
2019-07-31 17:00:00 24.5 12 Sudeste 36 Este 0 848.9 -1 26
2019-07-31 16:00:00 23.6 17 Sudeste 41 Este 0 849.4 -0.7 28
2019-07-31 15:00:00 22.1 19 Este 36 Este 0 849.6 -0.7 33
2019-07-31 14:00:00 22.4 18 Este 36 Sudeste 0 849.9 0 38
2019-07-31 13:00:00 19.8 21 Sudeste 34 Sudeste 0 850.1 0.5 42
2019-07-31 12:00:00 17.8 20 Sudeste 40 Sudeste 0 850.3 0.7 56
2019-07-31 11:00:00 16.8 24 Sudeste 39 Este 0 849.9 0.2 53
2019-07-31 10:00:00 15.6 26 Sudeste 41 Este 0 849.6 -0.2 50
2019-07-31 09:00:00 14.2 26 Sudeste 37 Este 0 849.6 -0.4 50
2019-07-31 08:00:00 13.1 24 Sudeste 38 Sudeste 0 849.7 -0.1 44
2019-07-31 07:00:00 13.8 22 Sudeste 33 Sudeste 0 849.8 -0.4 40
2019-07-31 06:00:00 13.8 16 Sudeste 31 Sudeste 0 850 -0.5 37
2019-07-31 05:00:00 13.8 14 Sudeste 21 Sudeste 0 849.8 -0.7 33
2019-07-31 04:00:00 14.5 12 Sudeste 21 Sudeste 0 850.2 -0.3 31
2019-07-31 03:00:00 14.1 4 Sudeste 12 Oeste 0 850.5 -0.1 30
2019-07-31 02:00:00 12.3 9 Oeste 13 Oeste 0 850.5 -0.1 31
2019-07-31 01:00:00 12.8 11 Noroeste 18 Oeste 0 850.5 0.3 30
2019-07-31 00:00:00 13.3 12 Noroeste 16 Oeste 0 850.6 0.7 30
2019-07-30 23:00:00 14.5 14 Noroeste 22 Noroeste 0 850.6 1 27
2019-07-30 22:00:00 15.8 14 Oeste 25 Noroeste 0 850.2 0.6 24
2019-07-30 21:00:00 17.9 17 Noroeste 31 Noroeste 0 849.9 -0.1 20
2019-07-30 20:00:00 21.2 17 Noroeste 30 Oeste 0 849.6 -0.5 17
2019-07-30 19:00:00 21.8 19 Noroeste 32 Noroeste 0 849.6 -0.7 16
2019-07-30 18:00:00 21 19 Noroeste 31 Oeste 0 850 -0.6 16
2019-07-30 17:00:00 21.2 18 Noroeste 32 Noroeste 0 850.1 -0.7 17
2019-07-30 16:00:00 20.6 17 Noroeste 33 Noroeste 0 850.3 -0.6 18
2019-07-30 15:00:00 19.7 18 Oeste 32 Noroeste 0 850.6 -0.3 22
2019-07-30 14:00:00 18 16 Noroeste 30 Oeste 0 850.8 0.2 26
2019-07-30 13:00:00 16.1 15 Oeste 29 Noroeste 0 850.9 0.2 32
2019-07-30 12:00:00 13.5 17 Noroeste 27 Oeste 0 850.9 0.7 40
2019-07-30 11:00:00 11.4 17 Noroeste 28 Noroeste 0 850.6 1.1 50
2019-07-30 10:00:00 8.5 21 Oeste 30 Noroeste 0 850.7 1.8 62
2019-07-30 09:00:00 6.5 23 Noroeste 36 Noroeste 0 850.2 1.5 71
2019-07-30 08:00:00 5.5 27 Noroeste 45 Oeste 0 849.5 0.8 75
2019-07-30 07:00:00 6 36 Noroeste 51 Noroeste 0 848.9 0.1 71
2019-07-30 06:00:00 6.6 37 Noroeste 54 Oeste 0 848.7 -0.3 62
2019-07-30 05:00:00 7.8 40 Noroeste 54 Noroeste 0 848.7 -0.4 56
2019-07-30 04:00:00 8.4 37 Noroeste 53 Noroeste 0 848.8 -0.3 50
2019-07-30 03:00:00 9.6 36 Noroeste 50 Noroeste 0 849 0 43
2019-07-30 02:00:00 11 31 Noroeste 47 Oeste 0 849.1 0.1 37
2019-07-30 01:00:00 12.1 32 Noroeste 43 Noroeste 0 849.1 0.7 33
2019-07-30 00:00:00 13.3 31 Noroeste 46 Noroeste 0 849 1.4 30
2019-07-29 23:00:00 14.7 31 Noroeste 43 Noroeste 0 849 1.8 26
2019-07-29 22:00:00 16.1 26 Noroeste 44 Noroeste 0 848.4 1.2 23
2019-07-29 21:00:00 18.8 28 Noroeste 48 Oeste 0 847.6 0.7 22
2019-07-29 20:00:00 20.7 29 Noroeste 45 Noroeste 0 847.2 0.2 22
2019-07-29 19:00:00 21.4 26 Noroeste 51 Noroeste 0 847.2 0.2 23
2019-07-29 18:00:00 22.1 26 Noroeste 48 Oeste 0 846.9 -0.1 25
2019-07-29 17:00:00 24.3 23 Noroeste 42 Noroeste 0 847 -0.1 22
2019-07-29 16:00:00 24.1 19 Noroeste 35 Noroeste 0 847 -0.2 21
2019-07-29 15:00:00 23.1 16 Noroeste 28 Oeste 0 847 -0.5 18
2019-07-29 14:00:00 23.6 14 Noroeste 27 Noroeste 0 847.1 -0.1 19
2019-07-29 13:00:00 21.5 14 Noroeste 26 Noroeste 0 847.2 0.2 25
2019-07-29 12:00:00 19 17 Noroeste 28 Noroeste 0 847.5 0.5 29
2019-07-29 11:00:00 18.8 10 Noroeste 18 Oeste 0 847.2 0.3 31
2019-07-29 10:00:00 16 7 Noroeste 14 Noroeste 0 847 0.5 41
2019-07-29 09:00:00 13.4 11 Noroeste 20 Oeste 0 847 0.6 50
2019-07-29 08:00:00 11.5 16 Oeste 22 Noroeste 0 846.9 0.6 49
2019-07-29 07:00:00 11.8 17 Oeste 24 Oeste 0 846.5 0.1 34
2019-07-29 06:00:00 12.3 19 Noroeste 31 Oeste 0 846.4 -0.1 29
2019-07-29 05:00:00 13.2 23 Noroeste 31 Noroeste 0 846.3 -0.3 26
2019-07-29 04:00:00 14.3 16 Noroeste 21 Noroeste 0 846.4 -0.3 24
2019-07-29 03:00:00 14.5 15 Noroeste 20 Noroeste 0 846.5 -0.3 23
2019-07-29 02:00:00 15 16 Noroeste 20 Noroeste 0 846.6 -0.1 22
2019-07-29 01:00:00 15.3 14 Noroeste 18 Noroeste 0 846.7 0.5 20
2019-07-29 00:00:00 15.9 13 Noroeste 17 Noroeste 0 846.8 0.8 19
2019-07-28 23:00:00 16.2 11 Oeste 17 Oeste 0 846.7 0.9 18
2019-07-28 22:00:00 17.3 12 Oeste 23 Noroeste 0 846.2 0.7 18
2019-07-28 21:00:00 20.3 17 Noroeste 28 Noroeste 0 846 0.4 14
2019-07-28 20:00:00 21.8 18 Noroeste 31 Noroeste 0 845.8 0 14
2019-07-28 19:00:00 22.7 16 Noroeste 36 Oeste 0 845.5 -0.6 14
2019-07-28 18:00:00 22 21 Noroeste 35 Noroeste 0 845.6 -0.7 14
2019-07-28 17:00:00 22.6 18 Noroeste 37 Noroeste 0 845.8 -0.6 16
2019-07-28 16:00:00 21 19 Noroeste 31 Noroeste 0 846.1 -0.5 18
2019-07-28 15:00:00 21 18 Noroeste 32 Noroeste 0 846.3 -0.4 21
2019-07-28 14:00:00 19.4 17 Noroeste 30 Noroeste 0 846.4 -0.2 25
2019-07-28 13:00:00 18.3 15 Noroeste 31 Oeste 0 846.6 -0.2 29
2019-07-28 12:00:00 16.9 13 Oeste 28 Oeste 0 846.7 0.5 33
2019-07-28 11:00:00 14.8 11 Noroeste 19 Oeste 0 846.6 0.4 39
2019-07-28 10:00:00 13.1 8 Noroeste 17 Noroeste 0 846.8 0.9 43
2019-07-28 09:00:00 9.8 14 Noroeste 19 Noroeste 0 846.2 0.7 60
2019-07-28 08:00:00 7.6 14 Noroeste 20 Noroeste 0 846.2 0.3 69
2019-07-28 07:00:00 7.6 13 Oeste 30 Noroeste 0 845.9 -0.3 76
2019-07-28 06:00:00 7.4 24 Noroeste 32 Noroeste 0 845.5 -0.5 82
2019-07-28 05:00:00 7.6 14 Noroeste 18 Noroeste 0 845.9 0.3 82
2019-07-28 04:00:00 9.2 8 Oeste 16 Oeste 0 846.2 0.8 70
2019-07-28 03:00:00 8.5 9 Oeste 22 Oeste 0 846 0.4 81
2019-07-28 02:00:00 9.2 16 Noroeste 35 Oeste 0 845.6 -0.1 80
2019-07-28 01:00:00 10.8 27 Oeste 42 Oeste 0 845.4 0.6 74
2019-07-28 00:00:00 12 19 Noroeste 33 Noroeste 0 845.6 1.4 60
2019-07-27 23:00:00 12.9 13 Noroeste 36 Noroeste 0 845.7 2.1 50
2019-07-26 12:00:00 17.8 22 Oeste 37 Oeste 0 847.6 0.2 47
2019-07-26 11:00:00 16.8 21 Noroeste 32 Noroeste 0 847.5 0 53
2019-07-26 10:00:00 15.6 18 Noroeste 32 Noroeste 0 847.6 -0.1 63
2019-07-26 09:00:00 14.1 19 Noroeste 28 Noroeste 0 847.4 -0.5 75
2019-07-26 08:00:00 13.6 13 Noroeste 19 Noroeste 0 847.5 -0.5 81
2019-07-26 07:00:00 13.8 14 Noroeste 27 Oeste 0 847.7 -0.6 81
2019-07-26 06:00:00 14 19 Noroeste 29 Oeste 0 847.9 -0.5 78
2019-07-26 05:00:00 14.3 22 Noroeste 40 Noroeste 0 848 -0.6 79
2019-07-26 04:00:00 15.6 27 Noroeste 43 Noroeste 0 848.3 -0.7 64
2019-07-26 03:00:00 17.4 27 Noroeste 40 Noroeste 0 848.4 -0.8 50
2019-07-26 02:00:00 17.7 25 Oeste 41 Oeste 0 848.6 -0.7 48
2019-07-26 01:00:00 17.8 29 Noroeste 43 Noroeste 0 849 -0.3 42
2019-07-26 00:00:00 19.2 24 Noroeste 35 Oeste 0 849.2 0 29
2019-07-25 23:00:00 20.6 18 Noroeste 34 Oeste 0 849.3 0.2 26
2019-07-25 22:00:00 22.2 20 Oeste 30 Oeste 0 849.3 0.4 24
2019-07-25 21:00:00 24.3 13 Oeste 29 Oeste 0 849.2 0 23
2019-07-25 20:00:00 25.7 13 Oeste 29 Oeste 0 849.1 -0.6 23
2019-07-25 19:00:00 26.9 9 Oeste 28 Oeste 0 848.9 -0.6 22
2019-07-25 18:00:00 26.6 6 Sudoeste 31 Oeste 0 849.2 -0.6 21
2019-07-25 17:00:00 28.2 12 Sudeste 35 Este 0 849.7 -0.3 20
2019-07-25 16:00:00 27.8 17 Sudeste 43 Este 0 849.5 -0.8 19
2019-07-25 15:00:00 27.4 13 Sudeste 40 Sudeste 0 849.8 -0.7 21
2019-07-25 14:00:00 26.4 15 Sudeste 36 Sudeste 0 850 -0.4 25
2019-07-25 13:00:00 25.4 10 Sudeste 33 Este 0 850.3 -0.4 27
2019-07-25 12:00:00 24.1 15 Este 28 Este 0 850.5 0.2 30
2019-07-25 11:00:00 22.8 14 Este 22 Sudeste 0 850.4 0.4 32
2019-07-25 10:00:00 21.3 13 Este 21 Este 0 850.7 0.7 33
2019-07-25 09:00:00 20.6 12 Sudeste 18 Este 0 850.3 0.6 35
2019-07-25 08:00:00 19.2 12 Sudeste 18 Sudeste 0 850 -0.2 37
2019-07-25 07:00:00 18.6 13 Sudeste 22 Este 0 850 -0.4 37
2019-07-25 06:00:00 17.6 6 Oeste 13 Oeste 0 849.7 -0.7 45
2019-07-25 05:00:00 18.1 8 Oeste 13 Noroeste 0 850.2 -0.4 44
2019-07-25 04:00:00 18.6 9 Oeste 24 Oeste 0 850.4 -0.1 38
2019-07-25 03:00:00 20.4 14 Sudeste 21 Este 0 850.4 0 29
2019-07-25 02:00:00 21.6 15 Este 24 Este 0 850.6 -0.1 28
2019-07-25 01:00:00 22.4 8 Este 19 Sudeste 0 850.5 0.1 27
2019-07-25 00:00:00 24.1 6 Sudeste 14 Sudeste 0 850.4 0 26
2019-07-24 23:00:00 23.9 5 Sur 10 Sur 0 850.7 0.6 26
2019-07-24 22:00:00 24.2 5 Sur 12 Sur 0 850.4 -0.1 25
2019-07-24 21:00:00 26.2 7 Sudeste 18 Este 0 850.4 -0.4 23
2019-07-24 20:00:00 27.2 9 Sudeste 37 Sudeste 0 850.1 -1 22
2019-07-24 19:00:00 27.3 12 Sudeste 33 Este 0 850.5 -0.6 22
2019-07-24 18:00:00 28.3 7 Sudeste 33 Sudeste 0 850.8 -0.6 22
2019-07-24 17:00:00 27.7 16 Sudeste 37 Sudeste 0 851.1 -1 23
2019-07-24 16:00:00 27.2 18 Sudeste 39 Sudeste 0 851.1 -1.1 24
2019-07-24 15:00:00 27.9 17 Este 37 Sudeste 0 851.4 -1 25
2019-07-24 14:00:00 26.3 16 Este 31 Este 0 852.1 -0.2 26
2019-07-24 13:00:00 26 13 Este 33 Este 0 852.2 0 28
2019-07-24 12:00:00 25 14 Sudeste 30 Sudeste 0 852.4 0.3 29
2019-07-24 11:00:00 23.4 15 Este 26 Sudeste 0 852.3 0.1 32
2019-07-24 10:00:00 22.5 15 Este 24 Este 0 852.2 0.3 33
2019-07-24 09:00:00 20.7 15 Sudeste 21 Sudeste 0 852.1 0.2 36
2019-07-24 08:00:00 18.8 11 Este 19 Este 0 852.2 0.3 39
2019-07-24 07:00:00 18.3 13 Este 22 Este 0 851.9 -0.1 38
2019-07-24 06:00:00 18.7 15 Sudeste 22 Este 0 851.9 -0.8 37
2019-07-24 05:00:00 19 10 Sudeste 17 Este 0 851.9 -1.5 37
2019-07-24 04:00:00 19.1 12 Sudeste 20 Sudeste 0 852 -1.4 37
2019-07-24 03:00:00 19 9 Este 22 Sudeste 0 852.7 -0.6 37
2019-07-24 02:00:00 19.1 13 Este 25 Sudeste 0 853.4 -0.2 37
2019-07-24 01:00:00 18.4 14 Sudeste 28 Sudeste 0 853.4 -0.1 43
2019-07-24 00:00:00 17.7 17 Sudeste 30 Sudeste 0 853.3 0 48
2019-07-23 23:00:00 19 9 Este 36 Sudeste 0 853.6 1.9 43
2019-07-23 22:00:00 18.7 13 Sudeste 34 Sudeste 0.3 853.5 2.2 47
2019-07-23 21:00:00 17.7 23 Sudeste 61 Sudeste 0.2 853.3 1.7 49
2019-07-23 20:00:00 27 9 Sudeste 43 Oeste 0 851.7 -0.7 18
2019-07-23 19:00:00 28.7 12 Sudeste 34 Este 0 851.3 -1.1 18
2019-07-23 18:00:00 28.3 18 Este 33 Este 0 851.6 -1.2 17
2019-07-23 17:00:00 28.6 15 Sudeste 37 Sudeste 0 852.4 -0.7 18
2019-07-23 16:00:00 27.5 17 Este 35 Este 0 852.4 -1.4 18
2019-07-23 15:00:00 27 18 Sudeste 34 Este 0 852.8 -0.9 21
2019-07-23 14:00:00 25.9 17 Este 31 Sudeste 0 853.1 -0.5 24
2019-07-23 13:00:00 23.4 16 Sudeste 33 Sudeste 0 853.8 0.1 25
2019-07-23 12:00:00 22.2 20 Sudeste 36 Sudeste 0 853.7 0.2 29
2019-07-23 11:00:00 20.9 22 Sudeste 34 Sudeste 0 853.6 -0.4 36
2019-07-23 10:00:00 18.2 19 Este 28 Este 0 853.7 -0.5 44
2019-07-23 09:00:00 17.8 8 Oeste 23 Noroeste 0.3 853.5 -1.5 48
2019-07-23 08:00:00 14.9 17 Noroeste 35 Noroeste 0 854 0.8 64
2019-07-23 07:00:00 14.6 16 Noroeste 34 Sudeste 1.1 854.2 -0.1 66
2019-07-23 06:00:00 19.6 16 Sudeste 28 Sudeste 0 855 0.1 29
2019-07-23 05:00:00 19.2 12 Este 26 Sudeste 0 853.2 -1.7 31
2019-07-23 04:00:00 19.4 7 Sudeste 23 Este 0 854.3 -0.9 31
2019-07-23 03:00:00 20.3 0 Calma 13 Este 0 854.9 0.2 30
2019-07-23 02:00:00 20.7 9 Este 21 Este 0 854.9 0.3 27
2019-07-23 01:00:00 22 12 Este 38 Sudeste 0 855.2 1 20
2019-07-23 00:00:00 22.7 22 Sudeste 41 Este 0 854.7 0.9 22
2019-07-22 23:00:00 23.9 16 Sudeste 35 Sudeste 0 854.6 0.7 23
2019-07-22 22:00:00 24.6 14 Este 23 Este 0 854.2 0.4 24
2019-07-22 21:00:00 25.6 14 Este 33 Sudeste 0 853.8 -0.5 22
2019-07-22 20:00:00 27.4 16 Sudeste 37 Sudeste 0 853.9 -0.9 22
2019-07-22 19:00:00 28.4 16 Sudeste 37 Este 0 853.8 -1.1 20
2019-07-22 18:00:00 28.5 16 Sudeste 35 Sudeste 0 854.3 -1.1 21
2019-07-22 17:00:00 28.6 19 Este 41 Sudeste 0 854.8 -0.7 21
2019-07-22 16:00:00 27.4 23 Sudeste 39 Sudeste 0 854.9 -0.7 22
2019-07-22 15:00:00 27.4 23 Sudeste 42 Sudeste 0 855.4 -0.3 22
2019-07-22 14:00:00 27.4 22 Sudeste 41 Sudeste 0 855.5 -0.1 22
2019-07-22 13:00:00 25.6 23 Sudeste 42 Este 0 855.6 -0.1 23
2019-07-22 12:00:00 24.4 23 Sudeste 40 Este 0 855.7 0 25
2019-07-22 11:00:00 22.6 22 Sudeste 36 Sudeste 0 855.6 0 29
2019-07-22 10:00:00 21.1 23 Este 34 Este 0 855.7 0.4 34
2019-07-22 09:00:00 19.3 23 Sudeste 37 Este 0 855.7 0.4 36
2019-07-22 08:00:00 18.7 22 Sudeste 35 Sudeste 0 855.6 0 38
2019-07-22 07:00:00 19 23 Sudeste 35 Sudeste 0 855.3 -0.6 36
2019-07-22 06:00:00 18.5 22 Sudeste 35 Este 0 855.3 -0.9 40
2019-07-22 05:00:00 18.5 18 Sudeste 28 Este 0 855.6 -0.7 43
2019-07-22 04:00:00 18.8 18 Sudeste 27 Sudeste 0 855.9 -0.2 43
2019-07-22 03:00:00 19.3 17 Sudeste 30 Este 0 856.2 0.2 43
2019-07-22 02:00:00 20.6 21 Sudeste 32 Sudeste 0 856.3 0.7 41
2019-07-22 01:00:00 22.1 17 Sudeste 31 Sudeste 0 856.1 1.4 36
2019-07-22 00:00:00 23.2 12 Sudeste 18 Sudeste 0 856 1.7 29
2019-07-21 23:00:00 24.5 8 Sudeste 21 Sudeste 0 855.6 1.6 26
2019-07-21 22:00:00 25.7 8 Sudoeste 12 Sudoeste 0 854.7 0.7 22
2019-07-21 21:00:00 26.5 6 Sudeste 16 Sudeste 0 854.3 0.5 22
2019-07-21 20:00:00 28.1 10 Sudeste 24 Sudeste 0 854 -0.1 21
2019-07-21 19:00:00 28.6 12 Este 24 Este 0 854 -0.5 21
2019-07-21 18:00:00 28.6 12 Sudeste 29 Sudeste 0 853.8 -0.8 21
2019-07-21 17:00:00 28.8 14 Sudeste 27 Sudeste 0 854.1 -0.6 22
2019-07-21 16:00:00 28.6 14 Sudeste 32 Este 0 854.5 -0.3 23
2019-07-21 15:00:00 27.4 16 Este 30 Este 0 854.6 0 25
2019-07-21 14:00:00 26.9 15 Este 28 Este 0 854.7 0.5 28
2019-07-21 13:00:00 25.5 14 Sudeste 30 Sudeste 0 854.8 0.8 30
2019-07-21 12:00:00 24.3 15 Este 25 Este 0 854.6 1.1 34
2019-07-21 11:00:00 22.5 14 Este 24 Este 0 854.2 1 38
2019-07-21 10:00:00 21.1 15 Sudeste 24 Este 0 854 0.8 40
2019-07-21 09:00:00 19.7 17 Sudeste 23 Este 0 853.5 0.5 43
2019-07-21 08:00:00 18.2 16 Sudeste 22 Este 0 853.2 0.4 47
2019-07-21 07:00:00 17.5 16 Sudeste 23 Este 0 853.2 0.1 46
2019-07-21 06:00:00 17.8 16 Sudeste 25 Sudeste 0 853 -0.3 45
2019-07-21 05:00:00 18.4 18 Sudeste 28 Sudeste 0 852.8 -0.6 43
2019-07-21 04:00:00 19.6 18 Sudeste 28 Sudeste 0 853.1 0 38
2019-07-21 03:00:00 20.4 6 Este 15 Noroeste 0 853.3 0.5 29
2019-07-21 02:00:00 20.1 12 Noroeste 31 Oeste 0 853.4 0.6 26
2019-07-21 01:00:00 21 20 Oeste 30 Oeste 0 853.1 1.1 25
2019-07-21 00:00:00 22 21 Oeste 31 Oeste 0 852.8 1.2 25